createdAt,value
2022-09-22T00:01:04.190Z,50.50
2022-09-22T00:03:37.706Z,50.50
2022-09-22T00:06:11.867Z,50.50
2022-09-22T00:08:39.182Z,50.50
2022-09-22T00:11:08.310Z,50.50
2022-09-22T00:13:35.439Z,50.50
2022-09-22T00:16:02.541Z,50.50
2022-09-22T00:18:30.523Z,51.20
2022-09-22T00:20:57.188Z,50.60
2022-09-22T00:23:24.912Z,50.60
2022-09-22T00:25:51.600Z,50.60
2022-09-22T00:28:20.273Z,50.60
2022-09-22T00:30:47.493Z,50.60
2022-09-22T00:33:14.121Z,50.60
2022-09-22T00:35:40.828Z,50.60
2022-09-22T00:38:07.956Z,50.60
2022-09-22T00:40:35.276Z,50.70
2022-09-22T00:43:14.188Z,50.80
2022-09-22T00:45:41.025Z,50.70
2022-09-22T00:48:07.701Z,50.70
2022-09-22T00:50:34.401Z,50.60
2022-09-22T00:53:03.562Z,50.70
2022-09-22T00:55:40.250Z,50.70
2022-09-22T00:58:08.044Z,50.60
2022-09-22T01:00:35.191Z,50.30
2022-09-22T01:03:02.118Z,50.00
2022-09-22T01:05:28.902Z,49.70
2022-09-22T01:07:55.590Z,49.50
2022-09-22T01:10:26.371Z,49.20
2022-09-22T01:12:57.506Z,49.00
2022-09-22T01:15:24.206Z,49.10
2022-09-22T01:18:09.828Z,49.20
2022-09-22T01:20:36.823Z,49.20
2022-09-22T01:23:12.504Z,49.30
2022-09-22T01:25:42.332Z,49.40
2022-09-22T01:28:09.062Z,49.40
2022-09-22T01:30:38.838Z,49.50
2022-09-22T01:33:06.348Z,49.50
2022-09-22T01:35:39.723Z,49.60
2022-09-22T01:38:09.319Z,49.70
2022-09-22T01:40:39.508Z,49.70
2022-09-22T01:43:06.905Z,49.80
2022-09-22T01:45:33.618Z,49.80
2022-09-22T01:48:05.231Z,49.80
2022-09-22T01:50:39.922Z,49.90
2022-09-22T01:53:07.643Z,49.90
2022-09-22T01:55:38.633Z,49.90
2022-09-22T01:58:14.571Z,50.00
2022-09-22T02:00:43.032Z,50.00
2022-09-22T02:03:10.796Z,50.00
2022-09-22T02:05:42.477Z,50.10
2022-09-22T02:08:13.767Z,50.10
2022-09-22T02:10:40.974Z,50.20
2022-09-22T02:13:07.602Z,50.20
2022-09-22T02:15:53.175Z,50.20
2022-09-22T02:18:21.697Z,50.20
2022-09-22T02:20:48.477Z,50.20
2022-09-22T02:23:15.093Z,50.20
2022-09-22T02:25:41.787Z,50.20
2022-09-22T02:28:08.406Z,50.20
2022-09-22T02:30:35.009Z,50.40
2022-09-22T02:33:01.699Z,50.30
2022-09-22T02:35:29.935Z,50.30
2022-09-22T02:38:19.796Z,50.20
2022-09-22T02:40:47.524Z,50.20
2022-09-22T02:43:20.437Z,50.20
2022-09-22T02:46:02.474Z,50.30
2022-09-22T02:48:30.990Z,50.20
2022-09-22T02:50:57.691Z,50.30
2022-09-22T02:53:24.332Z,50.30
2022-09-22T02:55:50.975Z,50.30
2022-09-22T02:58:17.644Z,50.40
2022-09-22T03:00:45.352Z,50.30
2022-09-22T03:03:12.216Z,50.30
2022-09-22T03:05:39.041Z,50.30
2022-09-22T03:08:06.637Z,50.30
2022-09-22T03:10:33.318Z,50.30
2022-09-22T03:13:15.936Z,50.00
2022-09-22T03:15:43.834Z,49.80
2022-09-22T03:18:10.632Z,49.40
2022-09-22T03:20:37.329Z,49.10
2022-09-22T03:23:03.976Z,49.40
2022-09-22T03:25:30.823Z,48.80
2022-09-22T03:27:57.520Z,48.80
2022-09-22T03:30:24.193Z,48.90
2022-09-22T03:32:50.858Z,49.10
2022-09-22T03:35:17.586Z,49.10
2022-09-22T03:37:45.512Z,49.30
2022-09-22T03:40:12.328Z,49.20
2022-09-22T03:42:39.001Z,49.30
2022-09-22T03:45:05.844Z,49.30
2022-09-22T03:47:32.490Z,49.40
2022-09-22T03:49:59.122Z,49.50
2022-09-22T03:52:25.959Z,49.60
2022-09-22T03:54:53.252Z,49.60
2022-09-22T03:57:19.943Z,49.60
2022-09-22T03:59:46.743Z,49.60
2022-09-22T04:02:14.171Z,49.70
2022-09-22T04:04:41.201Z,49.70
2022-09-22T04:07:07.892Z,49.70
2022-09-22T04:09:34.780Z,49.90
2022-09-22T04:12:01.631Z,50.00
2022-09-22T04:14:28.297Z,50.10
2022-09-22T04:16:54.983Z,50.30
2022-09-22T04:19:22.819Z,50.20
2022-09-22T04:21:53.197Z,50.40
2022-09-22T04:24:24.445Z,50.30
2022-09-22T04:27:08.612Z,50.50
2022-09-22T04:29:38.068Z,50.50
2022-09-22T04:32:05.212Z,50.60
2022-09-22T04:34:31.856Z,50.60
2022-09-22T04:36:58.491Z,50.80
2022-09-22T04:39:25.163Z,50.80
2022-09-22T04:41:51.839Z,50.80
2022-09-22T04:44:18.477Z,50.90
2022-09-22T04:46:46.299Z,50.80
2022-09-22T04:49:13.669Z,50.80
2022-09-22T04:51:40.393Z,50.90
2022-09-22T04:54:07.109Z,50.90
2022-09-22T04:56:33.875Z,50.80
2022-09-22T04:59:00.584Z,50.90
2022-09-22T05:01:27.511Z,50.90
2022-09-22T05:03:54.230Z,50.80
2022-09-22T05:06:20.855Z,50.80
2022-09-22T05:08:47.537Z,50.70
2022-09-22T05:11:14.483Z,48.10
2022-09-22T05:13:41.200Z,44.10
2022-09-22T05:16:08.750Z,47.70
2022-09-22T05:18:35.469Z,48.50
2022-09-22T05:21:02.138Z,49.60
2022-09-22T05:23:28.809Z,49.10
2022-09-22T05:25:55.466Z,49.50
2022-09-22T05:28:23.211Z,49.40
2022-09-22T05:30:50.689Z,49.30
2022-09-22T05:33:17.377Z,49.30
2022-09-22T05:35:44.237Z,49.60
2022-09-22T05:38:10.884Z,49.50
2022-09-22T05:40:37.639Z,49.50
2022-09-22T05:43:04.310Z,49.10
2022-09-22T05:45:31.066Z,49.00
2022-09-22T05:47:57.739Z,49.00
2022-09-22T05:50:24.452Z,49.10
2022-09-22T05:52:51.102Z,49.20
2022-09-22T05:55:18.078Z,49.30
2022-09-22T05:57:44.780Z,49.50
2022-09-22T06:00:11.847Z,49.60
2022-09-22T06:02:38.594Z,49.60
2022-09-22T06:05:05.294Z,49.60
2022-09-22T06:07:34.352Z,49.60
2022-09-22T06:10:01.026Z,49.70
2022-09-22T06:12:27.729Z,49.90
2022-09-22T06:14:54.416Z,49.90
2022-09-22T06:17:21.048Z,50.00
2022-09-22T06:19:49.851Z,50.00
2022-09-22T06:22:17.044Z,50.00
2022-09-22T06:24:43.858Z,50.30
2022-09-22T06:27:10.519Z,50.20
2022-09-22T06:29:38.085Z,50.30
2022-09-22T06:32:07.467Z,50.40
2022-09-22T06:34:34.854Z,50.40
2022-09-22T06:37:02.316Z,50.40
2022-09-22T06:39:29.385Z,50.30
2022-09-22T06:42:01.131Z,50.40
2022-09-22T06:44:29.057Z,50.50
2022-09-22T06:46:56.051Z,50.50
2022-09-22T06:49:22.719Z,50.50
2022-09-22T06:51:50.582Z,50.50
2022-09-22T06:54:17.398Z,50.60
2022-09-22T06:56:45.027Z,50.60
2022-09-22T06:59:13.531Z,50.70
2022-09-22T07:01:41.593Z,50.70
2022-09-22T07:04:08.292Z,50.80
2022-09-22T07:06:35.845Z,50.80
2022-09-22T07:09:02.490Z,50.90
2022-09-22T07:11:29.193Z,50.80
2022-09-22T07:13:56.362Z,50.90
2022-09-22T07:16:23.638Z,50.70
2022-09-22T07:18:53.145Z,50.80
2022-09-22T07:21:27.527Z,50.90
2022-09-22T07:23:54.567Z,50.80
2022-09-22T07:26:22.079Z,51.00
2022-09-22T07:28:51.976Z,50.60
2022-09-22T07:31:18.701Z,50.70
2022-09-22T07:33:45.776Z,50.80
2022-09-22T07:36:14.041Z,50.90
2022-09-22T07:38:42.193Z,51.00
2022-09-22T07:41:09.823Z,51.10
2022-09-22T07:43:36.450Z,51.00
2022-09-22T07:46:03.800Z,51.00
2022-09-22T07:48:36.370Z,51.00
2022-09-22T07:51:20.570Z,50.60
2022-09-22T07:53:48.173Z,50.50
2022-09-22T07:56:15.652Z,50.20
2022-09-22T07:58:45.931Z,50.10
2022-09-22T08:01:12.787Z,49.90
2022-09-22T08:03:39.840Z,49.50
2022-09-22T08:06:13.243Z,50.00
2022-09-22T08:08:42.116Z,49.40
2022-09-22T08:11:11.208Z,49.50
2022-09-22T08:13:39.035Z,49.50
2022-09-22T08:16:06.091Z,49.60
2022-09-22T08:18:33.451Z,49.70
2022-09-22T08:21:02.153Z,49.80
2022-09-22T08:23:29.613Z,49.80
2022-09-22T08:25:56.658Z,49.80
2022-09-22T08:28:23.332Z,49.90
2022-09-22T08:30:50.253Z,50.10
2022-09-22T08:33:17.147Z,50.00
2022-09-22T08:35:51.150Z,50.10
2022-09-22T08:38:17.796Z,50.20
2022-09-22T08:40:45.456Z,50.30
2022-09-22T08:43:12.947Z,50.30
2022-09-22T08:45:39.623Z,50.30
2022-09-22T08:48:26.011Z,50.40
2022-09-22T08:51:11.542Z,50.40
2022-09-22T08:53:43.607Z,50.40
2022-09-22T08:56:15.605Z,50.40
2022-09-22T08:58:50.768Z,50.40
2022-09-22T09:01:23.740Z,50.50
2022-09-22T09:03:56.040Z,50.50
2022-09-22T09:06:31.061Z,50.40
2022-09-22T09:09:05.219Z,50.50
2022-09-22T09:11:39.354Z,50.50
2022-09-22T09:14:22.159Z,50.60
2022-09-22T09:16:49.538Z,50.50
2022-09-22T09:19:20.282Z,50.70
2022-09-22T09:21:51.731Z,50.70
2022-09-22T09:27:12.145Z,50.60
2022-09-22T09:29:40.441Z,50.60
2022-09-22T09:32:08.847Z,50.60
2022-09-22T09:34:35.538Z,50.60
2022-09-22T09:37:08.856Z,50.70
2022-09-22T09:39:36.872Z,50.60
2022-09-22T09:42:08.639Z,50.70
2022-09-22T09:44:39.021Z,50.70
2022-09-22T09:47:19.602Z,50.70
2022-09-22T09:49:46.446Z,50.70
2022-09-22T09:52:13.609Z,50.70
2022-09-22T09:54:41.078Z,50.70
2022-09-22T09:57:11.784Z,50.60
2022-09-22T10:00:03.915Z,50.50
2022-09-22T10:02:31.821Z,50.20
2022-09-22T10:05:06.524Z,50.10
2022-09-22T10:07:51.995Z,49.80
2022-09-22T10:10:23.403Z,49.60
2022-09-22T10:12:49.986Z,49.40
2022-09-22T10:15:23.691Z,49.20
2022-09-22T10:17:50.373Z,49.30
2022-09-22T10:20:17.129Z,49.30
2022-09-22T10:22:43.953Z,49.30
2022-09-22T10:25:19.474Z,49.40
2022-09-22T10:28:06.968Z,49.50
2022-09-22T10:30:37.533Z,49.60
2022-09-22T10:33:05.615Z,49.70
2022-09-22T10:35:33.719Z,49.70
2022-09-22T10:38:01.918Z,49.90
2022-09-22T10:40:28.684Z,49.90
2022-09-22T10:42:56.732Z,49.90
2022-09-22T10:45:28.257Z,50.60
2022-09-22T10:47:55.053Z,50.00
2022-09-22T10:50:21.986Z,50.10
2022-09-22T10:52:54.786Z,50.10
2022-09-22T10:55:31.755Z,50.20
2022-09-22T10:58:07.962Z,50.10
2022-09-22T11:00:39.257Z,50.20
2022-09-22T11:03:21.553Z,50.20
2022-09-22T11:06:21.041Z,50.30
2022-09-22T11:09:13.338Z,50.30
2022-09-22T11:12:11.453Z,50.30
2022-09-22T11:14:48.305Z,50.40
2022-09-22T11:17:33.720Z,50.30
2022-09-22T11:20:06.663Z,50.40
2022-09-22T11:22:36.604Z,50.40
2022-09-22T11:25:22.532Z,50.40
2022-09-22T11:27:51.937Z,50.30
2022-09-22T11:30:23.032Z,50.80
2022-09-22T11:33:05.213Z,49.90
2022-09-22T11:35:53.911Z,49.70
2022-09-22T11:38:20.656Z,49.50
2022-09-22T11:41:00.402Z,49.10
2022-09-22T11:44:02.796Z,49.30
2022-09-22T11:46:35.108Z,49.30
2022-09-22T11:49:31.135Z,49.40
2022-09-22T11:52:02.033Z,49.40
2022-09-22T11:54:47.417Z,49.60
2022-09-22T11:57:15.928Z,49.70
2022-09-22T11:59:45.751Z,49.70
2022-09-22T12:02:15.305Z,49.90
2022-09-22T12:04:49.745Z,49.90
2022-09-22T12:07:17.931Z,50.00
2022-09-22T12:09:48.616Z,50.00
2022-09-22T12:12:16.970Z,50.00
2022-09-22T12:14:43.647Z,50.20
2022-09-22T12:17:12.820Z,50.10
2022-09-22T12:19:52.471Z,50.20
2022-09-22T12:22:27.735Z,50.20
2022-09-22T12:24:54.426Z,50.20
2022-09-22T12:27:22.396Z,50.30
2022-09-22T12:30:15.914Z,50.30
2022-09-22T12:32:42.611Z,50.30
2022-09-22T12:35:39.134Z,50.30
2022-09-22T12:38:05.880Z,50.40
2022-09-22T12:40:35.663Z,50.40
2022-09-22T12:43:02.354Z,50.50
2022-09-22T12:45:29.874Z,50.50
2022-09-22T12:47:57.005Z,50.60
2022-09-22T12:50:24.010Z,50.60
2022-09-22T12:52:51.165Z,50.50
2022-09-22T12:55:23.898Z,50.30
2022-09-22T12:57:50.973Z,50.20
2022-09-22T13:00:32.280Z,50.00
2022-09-22T13:03:00.118Z,49.70
2022-09-22T13:05:26.781Z,49.50
2022-09-22T13:07:53.685Z,49.40
2022-09-22T13:10:23.482Z,49.50
2022-09-22T13:13:12.235Z,49.50
2022-09-22T13:15:51.186Z,49.50
2022-09-22T13:18:27.172Z,49.70
2022-09-22T13:20:53.836Z,49.90
2022-09-22T13:23:20.518Z,49.80
2022-09-22T13:25:47.190Z,50.00
2022-09-22T13:28:23.366Z,50.00
2022-09-22T13:31:03.440Z,50.00
2022-09-22T13:33:33.626Z,50.10
2022-09-22T13:36:06.585Z,50.20
2022-09-22T13:38:34.966Z,50.20
2022-09-22T13:41:01.645Z,50.30
2022-09-22T13:43:29.557Z,50.20
2022-09-22T13:45:57.037Z,50.30
2022-09-22T13:48:23.760Z,50.40
2022-09-22T13:50:51.231Z,51.00
2022-09-22T13:53:18.582Z,50.40
2022-09-22T13:55:47.110Z,50.50
2022-09-22T13:58:16.883Z,50.50
2022-09-22T14:01:11.428Z,50.50
2022-09-22T14:03:38.241Z,50.60
2022-09-22T14:06:05.919Z,50.40
2022-09-22T14:08:32.563Z,50.50
2022-09-22T14:10:59.600Z,50.50
2022-09-22T14:13:36.004Z,50.60
2022-09-22T14:16:21.674Z,50.60
2022-09-22T14:18:49.719Z,50.40
2022-09-22T14:21:16.405Z,50.20
2022-09-22T14:23:44.000Z,50.10
2022-09-22T14:26:24.933Z,49.70
2022-09-22T14:28:51.717Z,48.40
2022-09-22T14:31:20.942Z,49.10
2022-09-22T14:33:48.408Z,49.20
2022-09-22T14:36:15.793Z,49.00
2022-09-22T14:38:47.085Z,49.20
2022-09-22T14:41:25.376Z,49.50
2022-09-22T14:43:54.546Z,49.50
2022-09-22T14:46:29.077Z,49.60
2022-09-22T14:48:57.774Z,49.70
2022-09-22T14:51:24.700Z,49.80
2022-09-22T14:54:04.298Z,49.80
2022-09-22T14:56:34.645Z,49.90
2022-09-22T14:59:25.086Z,50.00
2022-09-22T15:09:05.193Z,50.20
2022-09-22T15:11:56.094Z,50.10
2022-09-22T15:14:27.892Z,50.20
2022-09-22T15:34:35.406Z,50.80
2022-09-22T15:37:02.108Z,50.90
2022-09-22T15:39:29.524Z,50.70
2022-09-22T15:41:58.996Z,50.90
2022-09-22T15:44:25.789Z,50.70
2022-09-22T15:46:53.289Z,50.80
2022-09-22T15:49:22.611Z,50.60
2022-09-22T15:51:49.587Z,50.40
2022-09-22T15:54:17.697Z,49.90
2022-09-22T15:56:44.721Z,49.90
2022-09-22T15:59:16.959Z,49.80
2022-09-22T16:01:45.393Z,49.80
2022-09-22T16:04:13.317Z,50.00
2022-09-22T16:06:40.427Z,50.10
2022-09-22T16:09:07.244Z,50.20
2022-09-22T16:11:34.146Z,50.30
2022-09-22T16:14:03.614Z,50.30
2022-09-22T16:16:30.974Z,50.50
2022-09-22T16:18:58.577Z,50.50
2022-09-22T16:21:26.250Z,50.60
2022-09-22T16:23:58.681Z,50.70
2022-09-22T16:26:29.373Z,50.60
2022-09-22T16:28:56.144Z,50.70
2022-09-22T16:31:23.387Z,50.80
2022-09-22T16:33:54.621Z,50.80
2022-09-22T16:36:21.839Z,50.90
2022-09-22T16:38:48.801Z,51.00
2022-09-22T16:41:22.498Z,51.00
2022-09-22T16:43:49.339Z,51.10
2022-09-22T16:46:33.974Z,51.10
2022-09-22T16:49:04.129Z,50.40
2022-09-22T16:51:31.548Z,50.20
2022-09-22T16:53:58.322Z,50.50
2022-09-22T16:56:28.668Z,50.60
2022-09-22T16:58:55.776Z,50.80
2022-09-22T17:01:22.947Z,51.20
2022-09-22T17:03:50.044Z,51.30
2022-09-22T17:06:17.579Z,50.30
2022-09-22T17:08:44.252Z,50.40
2022-09-22T17:11:13.563Z,50.60
2022-09-22T17:13:43.332Z,50.00
2022-09-22T17:16:19.142Z,50.00
2022-09-22T17:18:45.856Z,49.80
2022-09-22T17:21:13.453Z,49.70
2022-09-22T17:23:40.540Z,49.80
2022-09-22T17:26:11.580Z,49.90
2022-09-22T17:28:38.796Z,50.00
2022-09-22T17:31:08.489Z,50.10
2022-09-22T17:33:48.902Z,50.20
2022-09-22T17:36:22.565Z,50.30
2022-09-22T17:38:53.128Z,50.20
2022-09-22T17:41:20.449Z,50.60
2022-09-22T17:43:48.096Z,50.20
2022-09-22T17:46:15.567Z,50.70
2022-09-22T17:49:00.969Z,50.70
2022-09-22T17:51:46.973Z,50.70
2022-09-22T17:54:52.529Z,50.90
2022-09-22T17:57:20.651Z,50.90
2022-09-22T17:59:47.410Z,50.70
2022-09-22T18:02:15.372Z,50.70
2022-09-22T18:04:42.388Z,51.10
2022-09-22T18:07:10.320Z,51.00
2022-09-22T18:09:37.614Z,51.10
2022-09-22T18:12:05.265Z,51.30
2022-09-22T18:14:34.359Z,50.90
2022-09-22T18:17:02.265Z,51.10
2022-09-22T18:19:29.369Z,51.10
2022-09-22T18:21:56.067Z,51.10
2022-09-22T18:24:22.889Z,50.60
2022-09-22T18:26:49.568Z,50.90
2022-09-22T18:29:17.188Z,51.00
2022-09-22T18:31:44.025Z,51.00
2022-09-22T18:34:10.996Z,51.00
2022-09-22T18:36:37.886Z,50.70
2022-09-22T18:39:04.896Z,50.50
2022-09-22T18:41:35.197Z,50.30
2022-09-22T18:44:04.766Z,50.00
2022-09-22T18:46:34.699Z,49.80
2022-09-22T18:49:05.390Z,49.70
2022-09-22T18:51:35.906Z,49.70
2022-09-22T18:54:06.369Z,50.40
2022-09-22T18:56:33.689Z,49.70
2022-09-22T18:59:00.452Z,49.70
2022-09-22T19:01:27.241Z,49.90
2022-09-22T19:03:53.998Z,50.70
2022-09-22T19:06:23.651Z,50.00
2022-09-22T19:08:50.327Z,50.10
2022-09-22T19:11:17.758Z,50.20
2022-09-22T19:13:44.701Z,50.30
2022-09-22T19:16:18.822Z,50.30
2022-09-22T19:18:45.466Z,50.50
2022-09-22T19:21:14.320Z,50.40
2022-09-22T19:23:42.782Z,50.40
2022-09-22T19:26:10.714Z,50.50
2022-09-22T19:28:37.558Z,50.50
2022-09-22T19:31:04.287Z,50.50
2022-09-22T19:33:31.046Z,50.40
2022-09-22T19:35:57.925Z,50.80
2022-09-22T19:38:25.316Z,50.60
2022-09-22T19:40:56.057Z,50.70
2022-09-22T19:43:24.493Z,50.70
2022-09-22T19:45:51.972Z,50.30
2022-09-22T19:48:18.984Z,50.40
2022-09-22T19:50:46.983Z,50.50
2022-09-22T19:53:14.059Z,50.70
2022-09-22T19:55:40.941Z,50.60
2022-09-22T19:58:07.777Z,50.80
2022-09-22T20:00:34.371Z,50.90
2022-09-22T20:03:01.328Z,50.80
2022-09-22T20:05:36.580Z,50.90
2022-09-22T20:08:06.828Z,51.00
2022-09-22T20:10:33.870Z,51.00
2022-09-22T20:13:00.477Z,50.90
2022-09-22T20:15:27.240Z,50.90
2022-09-22T20:17:54.059Z,50.90
2022-09-22T20:20:21.807Z,51.10
2022-09-22T20:22:50.384Z,51.00
2022-09-22T20:25:20.305Z,51.10
2022-09-22T20:27:47.971Z,51.10
2022-09-22T20:30:16.149Z,51.00
2022-09-22T20:32:42.881Z,51.00
2022-09-22T20:35:13.336Z,51.00
2022-09-22T20:37:40.880Z,51.10
2022-09-22T20:40:09.686Z,51.10
2022-09-22T20:42:36.608Z,50.80
2022-09-22T20:45:03.196Z,50.50
2022-09-22T20:47:29.758Z,50.30
2022-09-22T20:49:57.074Z,50.10
2022-09-22T20:52:23.689Z,49.80
2022-09-22T20:54:50.304Z,49.70
2022-09-22T20:57:40.496Z,49.50
2022-09-22T21:00:07.361Z,49.40
2022-09-22T21:02:34.017Z,49.40
2022-09-22T21:05:00.643Z,49.50
2022-09-22T21:07:27.267Z,49.70
2022-09-22T21:10:12.667Z,49.50
2022-09-22T21:12:40.411Z,49.60
2022-09-22T21:15:07.035Z,49.90
2022-09-22T21:17:35.142Z,49.80
2022-09-22T21:20:02.044Z,49.90
2022-09-22T21:22:28.728Z,49.90
2022-09-22T21:24:55.400Z,50.50
2022-09-22T21:27:21.958Z,50.20
2022-09-22T21:29:49.028Z,50.30
2022-09-22T21:32:15.582Z,50.40
2022-09-22T21:34:42.994Z,50.20
2022-09-22T21:37:09.925Z,50.40
2022-09-22T21:39:36.510Z,50.30
2022-09-22T21:42:03.194Z,50.40
2022-09-22T21:44:29.810Z,50.40
2022-09-22T21:46:56.365Z,50.30
2022-09-22T21:49:23.274Z,50.40
2022-09-22T21:51:49.832Z,50.40
2022-09-22T21:54:17.167Z,50.40
2022-09-22T21:56:44.706Z,50.50
2022-09-22T21:59:11.743Z,50.50
2022-09-22T22:01:38.742Z,50.50
2022-09-22T22:04:07.965Z,50.50
2022-09-22T22:06:37.402Z,51.10
2022-09-22T22:09:05.159Z,50.80
2022-09-22T22:11:35.603Z,50.60
2022-09-22T22:14:02.943Z,50.60
2022-09-22T22:16:33.640Z,50.60
2022-09-22T22:19:00.415Z,50.70
2022-09-22T22:21:29.168Z,50.30
2022-09-22T22:24:00.546Z,50.70
2022-09-22T22:26:27.133Z,50.50
2022-09-22T22:28:54.067Z,50.60
2022-09-22T22:31:21.439Z,50.50
2022-09-22T22:33:48.299Z,50.40
2022-09-22T22:36:15.876Z,50.50
2022-09-22T22:38:42.814Z,50.60
2022-09-22T22:41:18.411Z,50.50
2022-09-22T22:43:48.050Z,50.60
2022-09-22T22:46:19.260Z,50.70
2022-09-22T22:48:45.953Z,50.80
2022-09-22T22:51:13.315Z,50.70
2022-09-22T22:53:40.102Z,50.60
2022-09-22T22:56:07.746Z,50.50
2022-09-22T22:58:35.420Z,50.30
2022-09-22T23:01:02.521Z,50.10
2022-09-22T23:03:29.203Z,49.80
2022-09-22T23:05:56.681Z,49.60
2022-09-22T23:08:23.289Z,49.60
2022-09-22T23:10:50.192Z,49.10
2022-09-22T23:13:16.860Z,49.10
2022-09-22T23:15:45.530Z,49.20
2022-09-22T23:18:12.195Z,49.10
2022-09-22T23:20:38.930Z,49.20
2022-09-22T23:23:05.481Z,49.20
2022-09-22T23:25:34.551Z,49.50
2022-09-22T23:28:03.394Z,49.40
2022-09-22T23:30:29.958Z,49.40
2022-09-22T23:32:57.170Z,49.50
2022-09-22T23:35:23.726Z,49.70
2022-09-22T23:37:51.893Z,49.60
2022-09-22T23:40:18.557Z,49.70
2022-09-22T23:42:45.211Z,49.70
2022-09-22T23:45:11.746Z,49.80
2022-09-22T23:47:38.481Z,49.90
2022-09-22T23:50:05.401Z,50.00
2022-09-22T23:52:31.951Z,49.90
2022-09-22T23:54:58.646Z,50.00
2022-09-22T23:57:25.189Z,50.00
2022-09-22T23:59:51.761Z,50.10
